sensor_id;sensor_type;location;lat;lon;timestamp;temperature;humidity
22108;DHT22;11220;48.812;9.128;2024-01-15T00:01:14;16.20;64.20
22108;DHT22;11220;48.812;9.128;2024-01-15T00:03:40;16.20;64.30
22108;DHT22;11220;48.812;9.128;2024-01-15T00:06:05;16.20;64.30
22108;DHT22;11220;48.812;9.128;2024-01-15T00:08:31;16.20;64.30
22108;DHT22;11220;48.812;9.128;2024-01-15T00:10:56;16.20;64.20
22108;DHT22;11220;48.812;9.128;2024-01-15T00:13:22;16.20;64.20
22108;DHT22;11220;48.812;9.128;2024-01-15T00:15:47;16.20;64.20
22108;DHT22;11220;48.812;9.128;2024-01-15T00:18:13;16.20;64.30
22108;DHT22;11220;48.812;9.128;2024-01-15T00:20:38;16.20;64.30
22108;DHT22;11220;48.812;9.128;2024-01-15T00:23:04;16.20;64.30
22108;DHT22;11220;48.812;9.128;2024-01-15T00:25:29;16.20;64.30
22108;DHT22;11220;48.812;9.128;2024-01-15T00:27:55;16.20;64.20
22108;DHT22;11220;48.812;9.128;2024-01-15T00:30:20;16.20;64.20
22108;DHT22;11220;48.812;9.128;2024-01-15T00:32:46;16.20;64.30
22108;DHT22;11220;48.812;9.128;2024-01-15T00:35:11;16.20;64.30
22108;DHT22;11220;48.812;9.128;2024-01-15T00:37:37;16.10;64.20
22108;DHT22;11220;48.812;9.128;2024-01-15T00:40:03;16.10;64.20
22108;DHT22;11220;48.812;9.128;2024-01-15T00:42:29;16.10;64.20
22108;DHT22;11220;48.812;9.128;2024-01-15T00:44:55;16.10;64.30
22108;DHT22;11220;48.812;9.128;2024-01-15T00:47:20;16.10;64.20
22108;DHT22;11220;48.812;9.128;2024-01-15T00:49:46;16.10;64.30
22108;DHT22;11220;48.812;9.128;2024-01-15T00:52:11;16.10;64.30
22108;DHT22;11220;48.812;9.128;2024-01-15T00:54:37;16.10;64.30
22108;DHT22;11220;48.812;9.128;2024-01-15T00:57:03;16.10;64.30
22108;DHT22;11220;48.812;9.128;2024-01-15T00:59:29;16.10;64.30
22108;DHT22;11220;48.812;9.128;2024-01-15T01:01:54;16.10;64.40
22108;DHT22;11220;48.812;9.128;2024-01-15T01:04:20;16.10;64.30
22108;DHT22;11220;48.812;9.128;2024-01-15T01:06:46;16.00;64.20
22108;DHT22;11220;48.812;9.128;2024-01-15T01:09:11;16.10;64.30
22108;DHT22;11220;48.812;9.128;2024-01-15T01:11:37;16.10;64.30
22108;DHT22;11220;48.812;9.128;2024-01-15T01:14:02;16.00;64.30
22108;DHT22;11220;48.812;9.128;2024-01-15T01:16:28;16.00;64.30
22108;DHT22;11220;48.812;9.128;2024-01-15T01:18:53;16.00;64.40
22108;DHT22;11220;48.812;9.128;2024-01-15T01:21:19;16.00;64.30
22108;DHT22;11220;48.812;9.128;2024-01-15T01:23:45;16.00;64.30
22108;DHT22;11220;48.812;9.128;2024-01-15T01:26:10;16.00;64.40
22108;DHT22;11220;48.812;9.128;2024-01-15T01:28:35;16.00;64.40
22108;DHT22;11220;48.812;9.128;2024-01-15T01:31:01;16.00;64.30
22108;DHT22;11220;48.812;9.128;2024-01-15T01:33:27;16.00;64.30
22108;DHT22;11220;48.812;9.128;2024-01-15T01:35:52;16.00;64.40
22108;DHT22;11220;48.812;9.128;2024-01-15T01:38:18;16.00;64.40
22108;DHT22;11220;48.812;9.128;2024-01-15T01:40:44;15.90;64.30
22108;DHT22;11220;48.812;9.128;2024-01-15T01:43:09;16.00;64.30
22108;DHT22;11220;48.812;9.128;2024-01-15T01:45:35;16.00;64.40
22108;DHT22;11220;48.812;9.128;2024-01-15T01:48:01;15.90;64.30
22108;DHT22;11220;48.812;9.128;2024-01-15T01:50:28;15.90;64.30
22108;DHT22;11220;48.812;9.128;2024-01-15T01:52:55;15.90;64.30
22108;DHT22;11220;48.812;9.128;2024-01-15T01:55:21;15.90;64.30
22108;DHT22;11220;48.812;9.128;2024-01-15T01:57:50;15.90;64.20
22108;DHT22;11220;48.812;9.128;2024-01-15T02:00:15;15.90;65.20
22108;DHT22;11220;48.812;9.128;2024-01-15T02:02:42;15.90;64.20
22108;DHT22;11220;48.812;9.128;2024-01-15T02:05:08;15.90;64.30
22108;DHT22;11220;48.812;9.128;2024-01-15T02:07:34;15.90;64.30
22108;DHT22;11220;48.812;9.128;2024-01-15T02:10:01;15.90;64.30
22108;DHT22;11220;48.812;9.128;2024-01-15T02:12:26;16.40;64.60
22108;DHT22;11220;48.812;9.128;2024-01-15T02:14:52;15.90;64.40
22108;DHT22;11220;48.812;9.128;2024-01-15T02:17:17;15.90;64.20
22108;DHT22;11220;48.812;9.128;2024-01-15T02:19:43;15.90;64.20
22108;DHT22;11220;48.812;9.128;2024-01-15T02:22:09;15.90;64.30
22108;DHT22;11220;48.812;9.128;2024-01-15T02:24:34;15.90;64.20
22108;DHT22;11220;48.812;9.128;2024-01-15T02:27:00;15.80;64.10
22108;DHT22;11220;48.812;9.128;2024-01-15T02:29:26;15.80;64.00
22108;DHT22;11220;48.812;9.128;2024-01-15T02:31:51;15.90;64.10
22108;DHT22;11220;48.812;9.128;2024-01-15T02:34:17;15.80;64.00
22108;DHT22;11220;48.812;9.128;2024-01-15T02:36:42;15.80;64.00
22108;DHT22;11220;48.812;9.128;2024-01-15T02:39:08;15.80;64.00
22108;DHT22;11220;48.812;9.128;2024-01-15T02:41:33;15.80;64.10
22108;DHT22;11220;48.812;9.128;2024-01-15T02:43:59;15.80;64.10
22108;DHT22;11220;48.812;9.128;2024-01-15T02:46:24;15.80;64.10
22108;DHT22;11220;48.812;9.128;2024-01-15T02:48:50;15.80;64.00
22108;DHT22;11220;48.812;9.128;2024-01-15T02:51:16;15.80;64.10
22108;DHT22;11220;48.812;9.128;2024-01-15T02:53:41;15.80;64.20
22108;DHT22;11220;48.812;9.128;2024-01-15T02:56:07;15.80;64.10
22108;DHT22;11220;48.812;9.128;2024-01-15T02:58:33;15.80;64.00
22108;DHT22;11220;48.812;9.128;2024-01-15T03:00:58;15.80;64.00
22108;DHT22;11220;48.812;9.128;2024-01-15T03:03:24;15.80;64.00
22108;DHT22;11220;48.812;9.128;2024-01-15T03:05:50;15.80;64.00
22108;DHT22;11220;48.812;9.128;2024-01-15T03:08:15;15.80;64.10
22108;DHT22;11220;48.812;9.128;2024-01-15T03:10:41;15.80;64.00
22108;DHT22;11220;48.812;9.128;2024-01-15T03:13:06;15.80;64.00
22108;DHT22;11220;48.812;9.128;2024-01-15T03:15:32;15.70;63.80
22108;DHT22;11220;48.812;9.128;2024-01-15T03:17:57;16.30;64.20
22108;DHT22;11220;48.812;9.128;2024-01-15T03:20:23;15.80;64.00
22108;DHT22;11220;48.812;9.128;2024-01-15T03:22:48;15.70;63.90
22108;DHT22;11220;48.812;9.128;2024-01-15T03:25:14;15.70;63.90
22108;DHT22;11220;48.812;9.128;2024-01-15T03:27:40;15.70;64.00
22108;DHT22;11220;48.812;9.128;2024-01-15T03:30:06;15.70;63.90
22108;DHT22;11220;48.812;9.128;2024-01-15T03:32:32;15.70;63.90
22108;DHT22;11220;48.812;9.128;2024-01-15T03:34:57;15.70;63.70
22108;DHT22;11220;48.812;9.128;2024-01-15T03:37:23;15.70;63.70
22108;DHT22;11220;48.812;9.128;2024-01-15T03:39:48;15.70;63.80
22108;DHT22;11220;48.812;9.128;2024-01-15T03:42:14;15.70;63.80
22108;DHT22;11220;48.812;9.128;2024-01-15T03:44:40;15.70;63.80
22108;DHT22;11220;48.812;9.128;2024-01-15T03:47:05;15.70;63.70
22108;DHT22;11220;48.812;9.128;2024-01-15T03:49:31;15.70;63.70
22108;DHT22;11220;48.812;9.128;2024-01-15T03:51:56;15.70;63.70
22108;DHT22;11220;48.812;9.128;2024-01-15T03:54:22;15.70;63.40
22108;DHT22;11220;48.812;9.128;2024-01-15T03:56:47;15.60;63.20
22108;DHT22;11220;48.812;9.128;2024-01-15T03:59:13;15.60;63.00
22108;DHT22;11220;48.812;9.128;2024-01-15T04:01:38;15.70;63.10
22108;DHT22;11220;48.812;9.128;2024-01-15T04:04:04;15.60;63.00
22108;DHT22;11220;48.812;9.128;2024-01-15T04:06:29;15.60;62.80
22108;DHT22;11220;48.812;9.128;2024-01-15T04:08:55;15.70;62.90
22108;DHT22;11220;48.812;9.128;2024-01-15T04:11:20;15.60;62.70
22108;DHT22;11220;48.812;9.128;2024-01-15T04:13:46;15.60;63.00
22108;DHT22;11220;48.812;9.128;2024-01-15T04:16:12;15.60;63.40
22108;DHT22;11220;48.812;9.128;2024-01-15T04:18:37;15.60;63.70
22108;DHT22;11220;48.812;9.128;2024-01-15T04:21:05;15.60;63.70
22108;DHT22;11220;48.812;9.128;2024-01-15T04:23:32;15.60;63.70
22108;DHT22;11220;48.812;9.128;2024-01-15T04:25:57;15.60;63.60
22108;DHT22;11220;48.812;9.128;2024-01-15T04:28:23;15.60;63.50
22108;DHT22;11220;48.812;9.128;2024-01-15T04:30:48;15.60;63.50
22108;DHT22;11220;48.812;9.128;2024-01-15T04:33:14;15.60;63.50
22108;DHT22;11220;48.812;9.128;2024-01-15T04:35:39;15.60;63.30
22108;DHT22;11220;48.812;9.128;2024-01-15T04:38:05;15.60;63.20
22108;DHT22;11220;48.812;9.128;2024-01-15T04:40:30;15.60;63.30
22108;DHT22;11220;48.812;9.128;2024-01-15T04:42:56;15.60;63.40
22108;DHT22;11220;48.812;9.128;2024-01-15T04:45:21;15.60;63.40
22108;DHT22;11220;48.812;9.128;2024-01-15T04:47:48;15.50;63.40
22108;DHT22;11220;48.812;9.128;2024-01-15T04:50:14;15.50;63.40
22108;DHT22;11220;48.812;9.128;2024-01-15T04:52:40;15.60;63.40
22108;DHT22;11220;48.812;9.128;2024-01-15T04:55:05;15.60;63.40
22108;DHT22;11220;48.812;9.128;2024-01-15T04:57:31;15.60;63.30
22108;DHT22;11220;48.812;9.128;2024-01-15T04:59:57;15.60;63.40
22108;DHT22;11220;48.812;9.128;2024-01-15T05:02:22;15.60;63.50
22108;DHT22;11220;48.812;9.128;2024-01-15T05:04:48;15.50;63.40
22108;DHT22;11220;48.812;9.128;2024-01-15T05:07:13;15.50;63.40
22108;DHT22;11220;48.812;9.128;2024-01-15T05:09:39;15.50;63.50
22108;DHT22;11220;48.812;9.128;2024-01-15T05:12:04;15.50;63.60
22108;DHT22;11220;48.812;9.128;2024-01-15T05:14:30;15.50;63.50
22108;DHT22;11220;48.812;9.128;2024-01-15T05:16:55;15.50;63.50
22108;DHT22;11220;48.812;9.128;2024-01-15T05:19:21;15.50;63.40
22108;DHT22;11220;48.812;9.128;2024-01-15T05:21:46;15.50;63.50
22108;DHT22;11220;48.812;9.128;2024-01-15T05:24:12;15.50;63.60
22108;DHT22;11220;48.812;9.128;2024-01-15T05:26:37;15.50;63.80
22108;DHT22;11220;48.812;9.128;2024-01-15T05:29:03;15.50;63.70
22108;DHT22;11220;48.812;9.128;2024-01-15T05:31:29;15.50;63.80
22108;DHT22;11220;48.812;9.128;2024-01-15T05:33:54;15.50;63.90
22108;DHT22;11220;48.812;9.128;2024-01-15T05:36:20;15.50;63.70
22108;DHT22;11220;48.812;9.128;2024-01-15T05:38:46;15.50;63.70
22108;DHT22;11220;48.812;9.128;2024-01-15T05:41:11;15.50;63.60
22108;DHT22;11220;48.812;9.128;2024-01-15T05:43:37;15.50;63.70
22108;DHT22;11220;48.812;9.128;2024-01-15T05:46:02;15.50;63.70
22108;DHT22;11220;48.812;9.128;2024-01-15T05:48:28;15.50;63.70
22108;DHT22;11220;48.812;9.128;2024-01-15T05:50:53;15.50;63.50
22108;DHT22;11220;48.812;9.128;2024-01-15T05:53:19;15.50;63.40
22108;DHT22;11220;48.812;9.128;2024-01-15T05:55:44;15.50;63.30
22108;DHT22;11220;48.812;9.128;2024-01-15T05:58:10;15.50;63.10
22108;DHT22;11220;48.812;9.128;2024-01-15T06:00:35;15.50;63.00
22108;DHT22;11220;48.812;9.128;2024-01-15T06:03:03;15.60;62.70
22108;DHT22;11220;48.812;9.128;2024-01-15T06:05:29;15.60;62.70
22108;DHT22;11220;48.812;9.128;2024-01-15T06:07:54;15.60;62.70
22108;DHT22;11220;48.812;9.128;2024-01-15T06:10:20;15.60;62.80
22108;DHT22;11220;48.812;9.128;2024-01-15T06:12:45;15.60;62.90
22108;DHT22;11220;48.812;9.128;2024-01-15T06:15:11;15.70;63.10
22108;DHT22;11220;48.812;9.128;2024-01-15T06:17:37;15.70;63.20
22108;DHT22;11220;48.812;9.128;2024-01-15T06:20:03;15.80;63.30
22108;DHT22;11220;48.812;9.128;2024-01-15T06:22:28;15.80;63.40
22108;DHT22;11220;48.812;9.128;2024-01-15T06:24:54;15.80;63.50
22108;DHT22;11220;48.812;9.128;2024-01-15T06:27:21;15.90;63.40
22108;DHT22;11220;48.812;9.128;2024-01-15T06:29:46;15.90;63.50
22108;DHT22;11220;48.812;9.128;2024-01-15T06:32:14;16.00;63.80
22108;DHT22;11220;48.812;9.128;2024-01-15T06:34:40;16.00;63.90
22108;DHT22;11220;48.812;9.128;2024-01-15T06:37:06;16.10;64.10
22108;DHT22;11220;48.812;9.128;2024-01-15T06:39:31;16.10;64.10
22108;DHT22;11220;48.812;9.128;2024-01-15T06:41:57;16.10;64.10
22108;DHT22;11220;48.812;9.128;2024-01-15T06:44:23;16.20;64.30
22108;DHT22;11220;48.812;9.128;2024-01-15T06:46:48;16.30;64.30
22108;DHT22;11220;48.812;9.128;2024-01-15T06:49:14;16.30;64.20
22108;DHT22;11220;48.812;9.128;2024-01-15T06:51:40;16.30;64.10
22108;DHT22;11220;48.812;9.128;2024-01-15T06:54:05;16.40;64.10
22108;DHT22;11220;48.812;9.128;2024-01-15T06:56:31;16.40;63.90
22108;DHT22;11220;48.812;9.128;2024-01-15T06:58:57;16.50;63.80
22108;DHT22;11220;48.812;9.128;2024-01-15T07:01:22;16.50;63.60
22108;DHT22;11220;48.812;9.128;2024-01-15T07:03:48;16.90;63.70
22108;DHT22;11220;48.812;9.128;2024-01-15T07:06:14;16.60;63.40
22108;DHT22;11220;48.812;9.128;2024-01-15T07:08:40;16.60;63.30
22108;DHT22;11220;48.812;9.128;2024-01-15T07:11:06;16.60;63.20
22108;DHT22;11220;48.812;9.128;2024-01-15T07:13:32;17.40;63.60
22108;DHT22;11220;48.812;9.128;2024-01-15T07:15:58;16.70;63.00
22108;DHT22;11220;48.812;9.128;2024-01-15T07:18:24;16.80;63.00
22108;DHT22;11220;48.812;9.128;2024-01-15T07:20:50;16.80;63.00
22108;DHT22;11220;48.812;9.128;2024-01-15T07:23:16;18.40;63.80
22108;DHT22;11220;48.812;9.128;2024-01-15T07:25:42;16.90;62.80
22108;DHT22;11220;48.812;9.128;2024-01-15T07:28:10;16.90;62.70
22108;DHT22;11220;48.812;9.128;2024-01-15T07:30:36;17.00;63.10
22108;DHT22;11220;48.812;9.128;2024-01-15T07:33:04;18.10;64.00
22108;DHT22;11220;48.812;9.128;2024-01-15T07:35:30;17.00;62.50
22108;DHT22;11220;48.812;9.128;2024-01-15T07:37:57;17.00;62.40
22108;DHT22;11220;48.812;9.128;2024-01-15T07:40:22;16.90;62.30
22108;DHT22;11220;48.812;9.128;2024-01-15T07:42:48;17.10;62.40
22108;DHT22;11220;48.812;9.128;2024-01-15T07:45:13;17.10;62.30
22108;DHT22;11220;48.812;9.128;2024-01-15T07:51:05;15.80;61.30
22108;DHT22;11220;48.812;9.128;2024-01-15T07:53:31;17.00;62.20
22108;DHT22;11220;48.812;9.128;2024-01-15T07:55:57;19.10;64.80
22108;DHT22;11220;48.812;9.128;2024-01-15T07:58:22;17.10;62.20
22108;DHT22;11220;48.812;9.128;2024-01-15T08:00:48;17.10;62.20
22108;DHT22;11220;48.812;9.128;2024-01-15T08:03:13;17.10;62.20
22108;DHT22;11220;48.812;9.128;2024-01-15T08:05:40;17.20;62.20
22108;DHT22;11220;48.812;9.128;2024-01-15T08:08:06;17.20;62.20
22108;DHT22;11220;48.812;9.128;2024-01-15T08:10:31;17.20;62.20
22108;DHT22;11220;48.812;9.128;2024-01-15T08:12:57;17.20;62.20
22108;DHT22;11220;48.812;9.128;2024-01-15T08:15:22;17.30;62.20
22108;DHT22;11220;48.812;9.128;2024-01-15T08:17:48;17.30;62.20
22108;DHT22;11220;48.812;9.128;2024-01-15T08:20:13;17.30;62.10
22108;DHT22;11220;48.812;9.128;2024-01-15T08:22:41;17.30;62.10
22108;DHT22;11220;48.812;9.128;2024-01-15T08:25:06;17.30;62.10
22108;DHT22;11220;48.812;9.128;2024-01-15T08:27:32;17.40;62.10
22108;DHT22;11220;48.812;9.128;2024-01-15T08:29:58;17.40;62.10
22108;DHT22;11220;48.812;9.128;2024-01-15T08:32:23;17.40;62.00
22108;DHT22;11220;48.812;9.128;2024-01-15T08:34:49;17.40;62.00
22108;DHT22;11220;48.812;9.128;2024-01-15T08:37:17;17.40;61.90
22108;DHT22;11220;48.812;9.128;2024-01-15T08:39:43;17.50;62.00
22108;DHT22;11220;48.812;9.128;2024-01-15T08:42:08;17.50;61.90
22108;DHT22;11220;48.812;9.128;2024-01-15T08:44:34;17.50;61.90
22108;DHT22;11220;48.812;9.128;2024-01-15T08:47:00;17.50;61.90
22108;DHT22;11220;48.812;9.128;2024-01-15T08:49:25;17.50;61.90
22108;DHT22;11220;48.812;9.128;2024-01-15T08:51:51;17.50;61.80
22108;DHT22;11220;48.812;9.128;2024-01-15T08:54:16;17.50;61.90
22108;DHT22;11220;48.812;9.128;2024-01-15T08:56:43;17.50;61.90
22108;DHT22;11220;48.812;9.128;2024-01-15T08:59:08;17.50;62.00
22108;DHT22;11220;48.812;9.128;2024-01-15T09:01:38;17.50;62.00
22108;DHT22;11220;48.812;9.128;2024-01-15T09:04:04;17.50;62.10
22108;DHT22;11220;48.812;9.128;2024-01-15T09:06:30;17.60;62.10
22108;DHT22;11220;48.812;9.128;2024-01-15T09:08:55;17.50;62.10
22108;DHT22;11220;48.812;9.128;2024-01-15T09:11:21;17.60;62.20
22108;DHT22;11220;48.812;9.128;2024-01-15T09:13:46;17.60;62.10
22108;DHT22;11220;48.812;9.128;2024-01-15T09:16:12;17.50;62.10
22108;DHT22;11220;48.812;9.128;2024-01-15T09:18:37;17.60;62.10
22108;DHT22;11220;48.812;9.128;2024-01-15T09:21:03;17.60;62.10
22108;DHT22;11220;48.812;9.128;2024-01-15T09:23:30;17.60;62.10
22108;DHT22;11220;48.812;9.128;2024-01-15T09:25:56;17.50;62.10
22108;DHT22;11220;48.812;9.128;2024-01-15T09:28:21;17.50;62.10
22108;DHT22;11220;48.812;9.128;2024-01-15T09:30:46;17.60;62.20
22108;DHT22;11220;48.812;9.128;2024-01-15T09:33:12;17.60;62.20
22108;DHT22;11220;48.812;9.128;2024-01-15T09:35:38;17.60;62.20
22108;DHT22;11220;48.812;9.128;2024-01-15T09:38:03;17.70;62.30
22108;DHT22;11220;48.812;9.128;2024-01-15T09:40:31;17.60;62.80
22108;DHT22;11220;48.812;9.128;2024-01-15T09:43:00;17.60;63.20
22108;DHT22;11220;48.812;9.128;2024-01-15T09:45:26;17.60;63.40
22108;DHT22;11220;48.812;9.128;2024-01-15T09:47:52;18.30;64.00
22108;DHT22;11220;48.812;9.128;2024-01-15T09:50:18;17.60;63.70
22108;DHT22;11220;48.812;9.128;2024-01-15T09:52:44;17.60;63.90
22108;DHT22;11220;48.812;9.128;2024-01-15T09:55:10;17.60;63.90
22108;DHT22;11220;48.812;9.128;2024-01-15T09:57:37;17.60;64.10
22108;DHT22;11220;48.812;9.128;2024-01-15T10:00:05;17.60;64.20
22108;DHT22;11220;48.812;9.128;2024-01-15T10:02:32;17.70;64.30
22108;DHT22;11220;48.812;9.128;2024-01-15T10:04:59;17.70;64.50
22108;DHT22;11220;48.812;9.128;2024-01-15T10:07:25;17.70;64.60
22108;DHT22;11220;48.812;9.128;2024-01-15T10:09:51;17.70;64.80
22108;DHT22;11220;48.812;9.128;2024-01-15T10:12:17;17.60;64.80
22108;DHT22;11220;48.812;9.128;2024-01-15T10:14:43;17.70;64.80
22108;DHT22;11220;48.812;9.128;2024-01-15T10:17:15;17.70;64.90
22108;DHT22;11220;48.812;9.128;2024-01-15T10:19:41;17.70;64.90
22108;DHT22;11220;48.812;9.128;2024-01-15T10:22:09;17.70;64.90
22108;DHT22;11220;48.812;9.128;2024-01-15T10:24:36;17.70;64.90
22108;DHT22;11220;48.812;9.128;2024-01-15T10:27:06;17.70;64.70
22108;DHT22;11220;48.812;9.128;2024-01-15T10:29:32;17.70;64.70
22108;DHT22;11220;48.812;9.128;2024-01-15T10:31:58;17.70;64.70
22108;DHT22;11220;48.812;9.128;2024-01-15T10:34:25;17.80;64.80
22108;DHT22;11220;48.812;9.128;2024-01-15T10:36:50;17.80;64.70
22108;DHT22;11220;48.812;9.128;2024-01-15T10:39:21;17.80;64.80
22108;DHT22;11220;48.812;9.128;2024-01-15T10:41:47;17.80;64.70
22108;DHT22;11220;48.812;9.128;2024-01-15T10:44:12;17.80;64.60
22108;DHT22;11220;48.812;9.128;2024-01-15T10:46:38;17.80;64.60
22108;DHT22;11220;48.812;9.128;2024-01-15T10:49:05;17.80;64.50
22108;DHT22;11220;48.812;9.128;2024-01-15T10:51:30;17.70;64.30
22108;DHT22;11220;48.812;9.128;2024-01-15T10:53:57;17.70;63.90
22108;DHT22;11220;48.812;9.128;2024-01-15T10:56:23;17.70;63.50
22108;DHT22;11220;48.812;9.128;2024-01-15T10:58:50;17.70;63.20
22108;DHT22;11220;48.812;9.128;2024-01-15T11:01:16;17.70;64.00
22108;DHT22;11220;48.812;9.128;2024-01-15T11:03:43;17.70;62.90
22108;DHT22;11220;48.812;9.128;2024-01-15T11:06:19;17.70;62.70
22108;DHT22;11220;48.812;9.128;2024-01-15T11:08:48;17.70;62.40
22108;DHT22;11220;48.812;9.128;2024-01-15T11:11:17;17.70;62.30
22108;DHT22;11220;48.812;9.128;2024-01-15T11:13:45;17.70;62.10
22108;DHT22;11220;48.812;9.128;2024-01-15T11:16:13;17.70;62.00
22108;DHT22;11220;48.812;9.128;2024-01-15T11:19:04;17.70;62.10
22108;DHT22;11220;48.812;9.128;2024-01-15T11:21:29;17.70;62.20
22108;DHT22;11220;48.812;9.128;2024-01-15T11:23:59;17.70;62.20
22108;DHT22;11220;48.812;9.128;2024-01-15T11:26:44;17.70;62.30
22108;DHT22;11220;48.812;9.128;2024-01-15T11:34:53;17.70;62.50
22108;DHT22;11220;48.812;9.128;2024-01-15T11:37:20;17.70;62.50
22108;DHT22;11220;48.812;9.128;2024-01-15T11:39:46;17.70;62.60
22108;DHT22;11220;48.812;9.128;2024-01-15T11:42:12;17.70;62.60
22108;DHT22;11220;48.812;9.128;2024-01-15T11:44:39;17.70;62.70
22108;DHT22;11220;48.812;9.128;2024-01-15T11:47:12;17.70;62.80
22108;DHT22;11220;48.812;9.128;2024-01-15T11:50:01;17.80;63.00
22108;DHT22;11220;48.812;9.128;2024-01-15T11:52:36;17.80;63.10
22108;DHT22;11220;48.812;9.128;2024-01-15T11:55:11;17.70;63.00
22108;DHT22;11220;48.812;9.128;2024-01-15T11:57:50;17.70;63.00
22108;DHT22;11220;48.812;9.128;2024-01-15T12:00:16;17.70;63.00
22108;DHT22;11220;48.812;9.128;2024-01-15T12:02:43;17.70;63.90
22108;DHT22;11220;48.812;9.128;2024-01-15T12:05:10;17.70;63.00
22108;DHT22;11220;48.812;9.128;2024-01-15T12:07:38;17.60;63.00
22108;DHT22;11220;48.812;9.128;2024-01-15T12:10:11;17.70;63.10
22108;DHT22;11220;48.812;9.128;2024-01-15T12:13:04;17.60;63.00
22108;DHT22;11220;48.812;9.128;2024-01-15T12:15:31;17.60;63.00
22108;DHT22;11220;48.812;9.128;2024-01-15T12:17:59;17.60;63.00
22108;DHT22;11220;48.812;9.128;2024-01-15T12:20:26;17.60;63.00
22108;DHT22;11220;48.812;9.128;2024-01-15T12:22:52;17.60;63.00
22108;DHT22;11220;48.812;9.128;2024-01-15T12:25:17;17.60;63.00
22108;DHT22;11220;48.812;9.128;2024-01-15T12:27:43;17.60;63.10
22108;DHT22;11220;48.812;9.128;2024-01-15T12:30:13;17.60;63.10
22108;DHT22;11220;48.812;9.128;2024-01-15T12:32:42;17.60;63.10
22108;DHT22;11220;48.812;9.128;2024-01-15T12:35:09;17.60;63.10
22108;DHT22;11220;48.812;9.128;2024-01-15T12:37:36;17.60;63.20
22108;DHT22;11220;48.812;9.128;2024-01-15T12:40:03;17.50;63.20
22108;DHT22;11220;48.812;9.128;2024-01-15T12:42:29;17.50;63.20
22108;DHT22;11220;48.812;9.128;2024-01-15T12:44:59;17.50;63.30
22108;DHT22;11220;48.812;9.128;2024-01-15T12:47:25;17.50;63.30
22108;DHT22;11220;48.812;9.128;2024-01-15T12:49:54;17.50;63.40
22108;DHT22;11220;48.812;9.128;2024-01-15T12:52:20;17.60;63.60
22108;DHT22;11220;48.812;9.128;2024-01-15T12:54:48;17.50;63.60
22108;DHT22;11220;48.812;9.128;2024-01-15T12:57:13;17.60;63.70
22108;DHT22;11220;48.812;9.128;2024-01-15T12:59:39;17.60;63.70
22108;DHT22;11220;48.812;9.128;2024-01-15T13:02:05;17.60;63.80
22108;DHT22;11220;48.812;9.128;2024-01-15T13:04:31;18.00;64.00
22108;DHT22;11220;48.812;9.128;2024-01-15T13:06:57;17.60;63.80
22108;DHT22;11220;48.812;9.128;2024-01-15T13:09:22;17.60;63.70
22108;DHT22;11220;48.812;9.128;2024-01-15T13:11:48;17.60;63.70
22108;DHT22;11220;48.812;9.128;2024-01-15T13:14:13;17.80;63.90
22108;DHT22;11220;48.812;9.128;2024-01-15T13:16:42;17.60;63.70
22108;DHT22;11220;48.812;9.128;2024-01-15T13:19:09;17.60;63.70
22108;DHT22;11220;48.812;9.128;2024-01-15T13:21:45;17.70;63.70
22108;DHT22;11220;48.812;9.128;2024-01-15T13:24:10;17.60;63.60
22108;DHT22;11220;48.812;9.128;2024-01-15T13:26:36;17.60;63.60
22108;DHT22;11220;48.812;9.128;2024-01-15T13:29:03;17.60;63.60
22108;DHT22;11220;48.812;9.128;2024-01-15T13:31:32;17.60;63.60
22108;DHT22;11220;48.812;9.128;2024-01-15T13:33:59;17.70;63.70
22108;DHT22;11220;48.812;9.128;2024-01-15T13:36:26;18.20;64.00
22108;DHT22;11220;48.812;9.128;2024-01-15T13:38:52;17.60;63.60
22108;DHT22;11220;48.812;9.128;2024-01-15T13:41:22;17.60;63.60
22108;DHT22;11220;48.812;9.128;2024-01-15T13:43:51;17.60;63.60
22108;DHT22;11220;48.812;9.128;2024-01-15T13:46:18;17.70;63.70
22108;DHT22;11220;48.812;9.128;2024-01-15T13:48:44;17.60;63.60
22108;DHT22;11220;48.812;9.128;2024-01-15T13:51:10;17.60;63.60
22108;DHT22;11220;48.812;9.128;2024-01-15T13:53:38;17.60;63.60
22108;DHT22;11220;48.812;9.128;2024-01-15T13:56:04;17.60;63.60
22108;DHT22;11220;48.812;9.128;2024-01-15T13:58:30;17.50;63.60
22108;DHT22;11220;48.812;9.128;2024-01-15T14:00:56;17.60;63.60
22108;DHT22;11220;48.812;9.128;2024-01-15T14:03:22;17.60;63.70
22108;DHT22;11220;48.812;9.128;2024-01-15T14:05:47;17.60;63.70
22108;DHT22;11220;48.812;9.128;2024-01-15T14:08:13;17.60;63.70
22108;DHT22;11220;48.812;9.128;2024-01-15T14:10:39;17.60;63.70
22108;DHT22;11220;48.812;9.128;2024-01-15T14:13:05;17.50;63.70
22108;DHT22;11220;48.812;9.128;2024-01-15T14:15:30;17.50;63.70
22108;DHT22;11220;48.812;9.128;2024-01-15T14:17:56;17.50;63.70
22108;DHT22;11220;48.812;9.128;2024-01-15T14:20:23;17.50;63.80
22108;DHT22;11220;48.812;9.128;2024-01-15T14:22:48;17.50;63.90
22108;DHT22;11220;48.812;9.128;2024-01-15T14:25:14;17.50;63.90
22108;DHT22;11220;48.812;9.128;2024-01-15T14:27:39;17.50;64.00
22108;DHT22;11220;48.812;9.128;2024-01-15T14:30:05;17.50;64.00
22108;DHT22;11220;48.812;9.128;2024-01-15T14:32:31;17.50;64.10
22108;DHT22;11220;48.812;9.128;2024-01-15T14:34:57;17.50;64.00
22108;DHT22;11220;48.812;9.128;2024-01-15T14:37:22;17.50;64.00
22108;DHT22;11220;48.812;9.128;2024-01-15T14:39:48;17.50;64.10
22108;DHT22;11220;48.812;9.128;2024-01-15T14:42:13;17.60;64.20
22108;DHT22;11220;48.812;9.128;2024-01-15T14:44:39;17.50;64.00
22108;DHT22;11220;48.812;9.128;2024-01-15T14:47:08;17.50;64.20
22108;DHT22;11220;48.812;9.128;2024-01-15T14:49:33;17.50;64.00
22108;DHT22;11220;48.812;9.128;2024-01-15T14:51:59;17.50;63.90
22108;DHT22;11220;48.812;9.128;2024-01-15T14:54:25;17.50;63.90
22108;DHT22;11220;48.812;9.128;2024-01-15T14:56:51;17.50;63.90
22108;DHT22;11220;48.812;9.128;2024-01-15T14:59:16;17.50;63.90
22108;DHT22;11220;48.812;9.128;2024-01-15T15:01:42;17.50;63.90
22108;DHT22;11220;48.812;9.128;2024-01-15T15:04:07;17.40;63.80
22108;DHT22;11220;48.812;9.128;2024-01-15T15:06:33;17.50;63.90
22108;DHT22;11220;48.812;9.128;2024-01-15T15:08:59;17.70;63.90
22108;DHT22;11220;48.812;9.128;2024-01-15T15:11:27;17.50;63.80
22108;DHT22;11220;48.812;9.128;2024-01-15T15:13:53;17.40;63.70
22108;DHT22;11220;48.812;9.128;2024-01-15T15:16:19;17.50;63.80
22108;DHT22;11220;48.812;9.128;2024-01-15T15:18:44;17.50;63.80
22108;DHT22;11220;48.812;9.128;2024-01-15T15:21:11;17.50;63.90
22108;DHT22;11220;48.812;9.128;2024-01-15T15:23:37;17.40;63.80
22108;DHT22;11220;48.812;9.128;2024-01-15T15:26:04;17.40;63.80
22108;DHT22;11220;48.812;9.128;2024-01-15T15:28:30;17.40;63.80
22108;DHT22;11220;48.812;9.128;2024-01-15T15:30:56;17.40;63.90
22108;DHT22;11220;48.812;9.128;2024-01-15T15:33:22;17.40;63.90